Time;durP1;ratioP1;P1;durP2;ratioP2;P2;SDS_P1;SDS_P2;PMS_P1;PMS_P2;Temp;Humidity;BMP_temperature;BMP_pressure;BME280_temperature;BME280_humidity;BME280_pressure;Samples;Min_cycle;Max_cycle;Signal;HPM_P1;HPM_P2
2022/05/28 00:01:57;;;;;;;3.20;1.50;;;18.80;63.70;;;;;;5081101;28;20714;-63
2022/05/28 00:04:23;;;;;;;3.88;2.00;;;18.70;64.00;;;;;;5078888;28;20027;-62
2022/05/28 00:06:48;;;;;;;4.18;2.13;;;18.70;64.30;;;;;;5079260;28;20561;-63
2022/05/28 00:09:14;;;;;;;3.20;2.00;;;18.70;64.80;;;;;;5079241;28;20020;-61
2022/05/28 00:11:41;;;;;;;2.78;1.85;;;18.70;65.10;;;;;;5066897;28;20451;-61
2022/05/28 00:14:08;;;;;;;4.15;1.80;;;18.70;65.40;;;;;;5083686;28;20384;-62
2022/05/28 00:16:54;;;;;;;4.95;2.10;;;18.70;66.10;;;;;;5083440;28;20361;-61
2022/05/28 00:19:20;;;;;;;3.50;2.15;;;18.70;65.70;;;;;;5081271;28;20048;-62
2022/05/28 00:21:45;;;;;;;7.90;2.20;;;18.70;65.70;;;;;;5086956;28;20036;-62
2022/05/28 00:24:11;;;;;;;4.63;2.00;;;18.70;66.10;;;;;;5084989;28;20013;-63
2022/05/28 00:26:36;;;;;;;4.82;2.22;;;18.80;65.90;;;;;;5081400;28;20021;-61
2022/05/28 00:29:02;;;;;;;4.35;2.17;;;18.80;66.00;;;;;;5084758;28;20020;-61
2022/05/28 00:31:28;;;;;;;5.07;2.30;;;18.80;65.80;;;;;;5084553;28;20100;-62
2022/05/28 00:33:53;;;;;;;7.15;2.22;;;18.80;65.60;;;;;;5066434;28;20020;-62
2022/05/28 00:36:19;;;;;;;2.97;1.92;;;18.80;66.00;;;;;;5083258;28;20024;-62
2022/05/28 00:38:45;;;;;;;4.20;2.30;;;18.80;65.20;;;;;;5084028;28;20220;-62
2022/05/28 00:41:12;;;;;;;3.08;2.08;;;18.80;65.00;;;;;;5084089;28;20085;-63
2022/05/28 00:43:41;;;;;;;2.63;2.00;;;18.90;64.90;;;;;;5085742;28;20031;-62
2022/05/28 00:46:33;;;;;;;4.15;2.33;;;18.80;64.80;;;;;;5060967;28;20047;-61
2022/05/28 00:49:03;;;;;;;3.08;2.03;;;18.70;64.90;;;;;;5059922;28;20062;-61
2022/05/28 00:51:32;;;;;;;3.58;1.98;;;18.70;64.90;;;;;;5063072;28;20099;-62
2022/05/28 00:54:05;;;;;;;2.72;1.92;;;18.80;64.80;;;;;;5064150;28;20029;-61
2022/05/28 00:56:31;;;;;;;4.03;2.10;;;18.80;64.60;;;;;;5064413;28;20108;-61
2022/05/28 00:58:58;;;;;;;3.67;2.33;;;18.90;64.60;;;;;;5045704;28;20123;-61
2022/05/28 01:01:27;;;;;;;4.60;2.38;;;18.80;64.50;;;;;;5041039;28;20024;-63
2022/05/28 01:04:27;;;;;;;4.05;2.13;;;18.80;64.40;;;;;;5064471;28;20016;-63
2022/05/28 01:07:17;;;;;;;6.40;2.10;;;18.90;64.30;;;;;;5066148;28;20085;-61
2022/05/28 01:10:05;;;;;;;4.68;2.03;;;18.80;64.50;;;;;;5061503;28;20096;-61
2022/05/28 01:12:34;;;;;;;2.95;2.20;;;18.80;64.50;;;;;;5064777;28;20017;-61
2022/05/28 01:15:09;;;;;;;2.65;1.98;;;18.80;64.40;;;;;;5063189;28;20043;-61
2022/05/28 01:17:53;;;;;;;6.75;2.20;;;18.80;64.60;;;;;;5064083;28;20044;-60
2022/05/28 01:20:29;;;;;;;3.42;2.15;;;18.80;64.50;;;;;;5065726;28;20016;-60
2022/05/28 01:23:12;;;;;;;3.53;2.25;;;18.80;64.70;;;;;;5061207;28;20105;-61
2022/05/28 01:25:43;;;;;;;5.93;2.22;;;18.70;64.90;;;;;;5066638;28;20052;-60
2022/05/28 01:28:14;;;;;;;3.70;2.40;;;18.80;64.90;;;;;;5064100;28;20032;-61
2022/05/28 01:30:44;;;;;;;2.63;2.13;;;18.80;64.70;;;;;;5043260;28;20033;-61
2022/05/28 01:33:12;;;;;;;2.90;2.08;;;18.90;64.50;;;;;;5064333;28;20028;-61
2022/05/28 01:35:38;;;;;;;3.92;2.17;;;18.80;64.60;;;;;;5042171;28;20016;-59
2022/05/28 01:38:06;;;;;;;2.90;1.95;;;18.90;64.70;;;;;;5064652;28;20031;-60
2022/05/28 01:40:34;;;;;;;2.92;2.08;;;18.80;64.80;;;;;;5060895;28;20013;-62
2022/05/28 01:43:04;;;;;;;3.05;2.13;;;18.90;64.60;;;;;;5063446;28;20020;-61
2022/05/28 01:45:31;;;;;;;3.83;1.90;;;18.90;64.60;;;;;;5074977;28;20045;-62
2022/05/28 01:48:02;;;;;;;3.55;2.40;;;18.90;64.70;;;;;;5082796;28;20216;-61
2022/05/28 01:50:31;;;;;;;2.40;2.05;;;18.90;64.40;;;;;;5082355;28;20017;-61
2022/05/28 01:53:01;;;;;;;5.35;2.33;;;19.00;64.20;;;;;;5082459;28;20263;-61
2022/05/28 01:55:28;;;;;;;6.07;2.20;;;18.90;63.90;;;;;;5084413;28;20012;-61
2022/05/28 01:57:54;;;;;;;3.95;2.17;;;18.90;64.10;;;;;;5084050;28;20016;-61
2022/05/28 02:00:20;;;;;;;3.50;2.17;;;18.90;64.00;;;;;;5082976;28;20130;-62
2022/05/28 02:02:46;;;;;;;3.70;2.40;;;18.90;64.00;;;;;;5064681;28;20103;-61
2022/05/28 02:05:13;;;;;;;3.33;2.28;;;18.90;64.00;;;;;;5084924;28;20013;-62
2022/05/28 02:07:38;;;;;;;5.53;2.25;;;18.90;64.10;;;;;;5061925;28;20508;-59
2022/05/28 02:10:14;;;;;;;3.70;2.22;;;18.90;64.30;;;;;;5084553;28;20020;-61
2022/05/28 02:13:05;;;;;;;3.55;2.47;;;18.90;64.20;;;;;;5083643;28;20488;-59
2022/05/28 02:15:44;;;;;;;3.22;2.35;;;18.90;64.00;;;;;;5084778;28;20024;-61
2022/05/28 02:18:37;;;;;;;3.35;2.60;;;19.00;64.00;;;;;;5082178;28;20512;-61
2022/05/28 02:21:09;;;;;;;3.70;2.50;;;19.00;64.00;;;;;;5082558;28;20461;-61
2022/05/28 02:23:45;;;;;;;4.90;2.70;;;18.90;64.10;;;;;;5082591;28;20024;-62
2022/05/28 02:26:41;;;;;;;3.17;2.53;;;18.90;64.10;;;;;;5081692;28;20031;-61
2022/05/28 02:29:07;;;;;;;3.78;2.40;;;18.90;64.10;;;;;;5083401;28;20070;-61
2022/05/28 02:31:34;;;;;;;3.78;2.42;;;18.80;64.20;;;;;;5082492;28;20063;-62
2022/05/28 02:34:01;;;;;;;2.60;2.40;;;18.80;64.40;;;;;;5064871;28;20031;-62
2022/05/28 02:36:28;;;;;;;3.90;2.35;;;18.80;64.40;;;;;;5060270;28;20012;-61
2022/05/28 02:38:54;;;;;;;3.13;2.25;;;18.80;64.50;;;;;;5082569;28;20481;-61
2022/05/28 02:41:20;;;;;;;2.75;2.50;;;18.70;64.70;;;;;;5065771;28;20154;-62
2022/05/28 02:43:46;;;;;;;3.13;2.38;;;18.70;64.80;;;;;;5060124;28;20289;-61
2022/05/28 02:46:12;;;;;;;4.57;2.83;;;18.70;64.90;;;;;;5083990;28;20107;-62
2022/05/28 02:48:39;;;;;;;4.18;2.53;;;18.80;64.80;;;;;;5083496;28;20016;-60
2022/05/28 02:51:14;;;;;;;5.03;2.47;;;18.70;64.80;;;;;;5078863;28;20261;-61
2022/05/28 02:53:40;;;;;;;3.92;2.95;;;18.80;64.80;;;;;;5081942;28;20099;-59
2022/05/28 02:56:07;;;;;;;4.80;2.88;;;18.80;64.70;;;;;;5083352;28;20091;-60
2022/05/28 02:58:33;;;;;;;5.03;3.20;;;18.90;64.50;;;;;;5063797;28;20486;-61
2022/05/28 03:01:03;;;;;;;7.07;3.33;;;19.00;64.20;;;;;;5063437;28;20457;-61
2022/05/28 03:03:28;;;;;;;4.03;2.95;;;18.90;64.20;;;;;;5069655;28;20085;-61
2022/05/28 03:05:55;;;;;;;4.60;3.10;;;18.90;64.20;;;;;;5061054;28;20513;-61
2022/05/28 03:08:21;;;;;;;5.53;3.70;;;18.90;64.10;;;;;;5081410;28;20036;-64
2022/05/28 03:13:31;;;;;;;4.25;3.35;;;18.90;64.20;;;;;;5082843;28;20031;-61
2022/05/28 03:15:57;;;;;;;7.18;3.60;;;18.80;64.30;;;;;;5079617;28;20119;-62
2022/05/28 03:18:22;;;;;;;6.75;3.95;;;18.80;64.70;;;;;;5079810;28;20029;-61
2022/05/28 03:20:48;;;;;;;5.85;3.63;;;18.70;64.80;;;;;;5082820;28;20103;-61
2022/05/28 03:23:13;;;;;;;6.25;3.63;;;18.70;64.90;;;;;;5079981;28;20023;-62
2022/05/28 03:25:39;;;;;;;6.85;4.10;;;18.80;64.90;;;;;;5080806;28;20017;-60
2022/05/28 03:28:05;;;;;;;6.30;3.80;;;18.80;65.20;;;;;;5081664;28;20480;-62
2022/05/28 03:30:30;;;;;;;4.35;3.80;;;18.80;65.20;;;;;;5079795;28;20071;-61
2022/05/28 03:32:56;;;;;;;7.47;4.30;;;18.70;65.30;;;;;;5084341;28;20031;-61
2022/05/28 03:35:22;;;;;;;5.18;3.72;;;18.80;65.20;;;;;;5080811;28;20020;-60
2022/05/28 03:38:06;;;;;;;6.32;4.00;;;18.80;65.20;;;;;;5065080;28;20024;-62
2022/05/28 03:40:32;;;;;;;5.18;3.63;;;18.90;65.10;;;;;;5061589;28;20021;-60
2022/05/28 03:42:58;;;;;;;6.93;4.22;;;19.00;64.80;;;;;;5080859;28;20069;-60
2022/05/28 03:45:26;;;;;;;5.90;4.20;;;18.90;65.00;;;;;;5080855;28;20052;-61
2022/05/28 03:47:52;;;;;;;6.30;4.25;;;18.90;65.30;;;;;;5083001;28;20017;-61
2022/05/28 03:50:18;;;;;;;9.95;4.78;;;18.90;66.10;;;;;;5083661;28;20020;-61
2022/05/28 03:52:43;;;;;;;6.22;4.38;;;18.80;66.90;;;;;;5084360;28;20020;-60
2022/05/28 03:55:09;;;;;;;6.10;4.35;;;18.80;67.20;;;;;;5083719;28;20404;-62
2022/05/28 03:57:36;;;;;;;5.40;4.50;;;18.90;67.20;;;;;;5085230;28;20020;-61
2022/05/28 04:00:03;;;;;;;6.68;4.00;;;18.80;67.10;;;;;;5084368;28;20017;-61
2022/05/28 04:02:29;;;;;;;4.93;3.90;;;18.90;67.00;;;;;;5085274;28;20470;-61
2022/05/28 04:04:55;;;;;;;6.47;3.90;;;18.80;66.90;;;;;;5083174;28;20103;-61
2022/05/28 04:07:21;;;;;;;4.35;3.67;;;18.70;67.20;;;;;;5085803;28;20466;-61
2022/05/28 04:09:47;;;;;;;5.75;3.13;;;18.50;67.00;;;;;;5080515;28;20154;-60
2022/05/28 04:12:13;;;;;;;8.25;3.25;;;18.60;67.00;;;;;;5065365;28;20135;-62
2022/05/28 04:14:39;;;;;;;6.18;3.08;;;18.60;66.70;;;;;;5081334;28;20503;-59
2022/05/28 04:17:05;;;;;;;5.00;2.90;;;18.60;66.80;;;;;;5082458;28;20056;-61
2022/05/28 04:19:31;;;;;;;6.45;2.92;;;18.60;66.20;;;;;;5077702;28;20017;-60
2022/05/28 04:21:57;;;;;;;4.78;2.83;;;18.60;65.70;;;;;;5062039;28;20024;-60
2022/05/28 04:24:23;;;;;;;5.75;3.15;;;18.50;65.90;;;;;;5083657;28;20024;-60
2022/05/28 04:26:49;;;;;;;4.95;2.97;;;18.50;65.70;;;;;;5082100;28;20024;-60
2022/05/28 04:29:14;;;;;;;5.47;2.78;;;18.50;65.10;;;;;;5081503;28;20028;-62
2022/05/28 04:31:40;;;;;;;7.05;3.35;;;18.40;65.40;;;;;;5078498;28;20446;-59
2022/05/28 04:34:06;;;;;;;5.78;3.45;;;18.40;65.40;;;;;;5063108;28;20036;-60
2022/05/28 04:36:31;;;;;;;4.65;3.80;;;18.40;65.50;;;;;;5082230;28;20023;-60
2022/05/28 04:38:57;;;;;;;4.38;2.85;;;18.40;65.80;;;;;;5062059;28;20135;-60
2022/05/28 04:41:23;;;;;;;6.20;3.60;;;18.50;65.20;;;;;;5081142;28;20020;-61
2022/05/28 04:43:48;;;;;;;7.10;2.60;;;18.60;64.90;;;;;;5081290;28;20069;-61
2022/05/28 04:46:14;;;;;;;6.95;3.08;;;18.60;64.80;;;;;;5079474;28;20494;-61
2022/05/28 04:48:40;;;;;;;6.63;3.00;;;18.60;63.80;;;;;;5078180;28;20024;-59
2022/05/28 04:51:06;;;;;;;5.90;2.70;;;18.70;63.80;;;;;;5074531;28;20078;-61
2022/05/28 04:53:32;;;;;;;5.75;2.83;;;18.60;63.80;;;;;;5073815;28;20056;-61
2022/05/28 04:55:58;;;;;;;4.88;2.72;;;18.60;63.60;;;;;;5072678;28;20420;-61
2022/05/28 04:58:24;;;;;;;6.80;2.55;;;18.60;63.50;;;;;;5072816;28;20138;-61
2022/05/28 05:00:50;;;;;;;6.30;2.80;;;18.60;63.20;;;;;;5061115;28;20024;-60
2022/05/28 05:03:16;;;;;;;6.93;3.03;;;18.70;63.10;;;;;;5083779;28;20024;-61
2022/05/28 05:05:42;;;;;;;5.68;2.70;;;18.70;63.30;;;;;;5078905;28;20032;-59
2022/05/28 05:08:08;;;;;;;4.40;2.63;;;18.80;62.70;;;;;;5071956;28;20028;-60
2022/05/28 05:10:34;;;;;;;8.60;2.50;;;18.80;62.10;;;;;;5083440;28;20043;-60
2022/05/28 05:13:00;;;;;;;6.07;2.38;;;19.00;62.10;;;;;;5075166;28;20088;-61
2022/05/28 05:15:27;;;;;;;4.57;2.83;;;18.90;61.50;;;;;;5077289;28;20059;-60
2022/05/28 05:17:53;;;;;;;4.90;2.60;;;18.80;61.80;;;;;;5081024;28;20021;-61
2022/05/28 05:20:18;;;;;;;4.30;2.40;;;19.00;61.80;;;;;;5058848;28;20031;-61
2022/05/28 05:22:44;;;;;;;5.15;2.90;;;19.00;61.60;;;;;;5079751;28;20020;-60
2022/05/28 05:25:12;;;;;;;6.10;3.00;;;19.10;61.20;;;;;;5057559;28;20485;-62
2022/05/28 05:27:38;;;;;;;5.90;2.70;;;19.20;61.50;;;;;;5074616;28;20497;-60
2022/05/28 05:30:05;;;;;;;5.80;2.55;;;19.30;60.90;;;;;;5061341;28;20032;-61
2022/05/28 05:32:31;;;;;;;4.70;2.47;;;19.50;60.40;;;;;;5071989;28;20521;-61
2022/05/28 05:34:57;;;;;;;4.80;2.60;;;19.80;59.60;;;;;;5073698;28;20165;-61
2022/05/28 05:37:23;;;;;;;4.80;2.75;;;19.90;59.30;;;;;;5057847;28;20024;-61
2022/05/28 05:39:49;;;;;;;4.68;2.70;;;20.10;58.90;;;;;;5071533;28;20036;-61
2022/05/28 05:42:14;;;;;;;5.03;2.70;;;20.20;58.50;;;;;;5072589;28;20411;-62
2022/05/28 05:44:40;;;;;;;4.25;2.40;;;20.40;58.40;;;;;;5059601;28;20052;-60
2022/05/28 05:47:07;;;;;;;4.63;2.42;;;20.50;57.60;;;;;;5080951;28;20024;-61
2022/05/28 05:49:32;;;;;;;3.83;2.13;;;20.60;57.30;;;;;;5071145;28;20507;-61
2022/05/28 05:51:58;;;;;;;8.23;2.53;;;20.70;56.90;;;;;;5081495;28;20043;-60
2022/05/28 05:54:24;;;;;;;5.95;2.40;;;20.40;56.50;;;;;;5082690;28;20435;-62
2022/05/28 05:56:50;;;;;;;5.88;2.70;;;20.50;56.90;;;;;;5081092;28;20494;-60
2022/05/28 05:59:16;;;;;;;12.93;2.60;;;20.70;56.30;;;;;;5084164;28;20036;-62
2022/05/28 06:01:42;;;;;;;6.30;2.40;;;20.70;56.00;;;;;;5061477;28;20021;-59
2022/05/28 06:04:08;;;;;;;4.70;2.65;;;20.60;55.60;;;;;;5058463;28;20027;-60
2022/05/28 06:06:34;;;;;;;5.35;2.20;;;20.80;56.30;;;;;;5085930;28;20526;-60
2022/05/28 06:09:00;;;;;;;6.25;2.88;;;20.90;55.40;;;;;;5079785;28;20166;-61
2022/05/28 06:11:26;;;;;;;4.60;2.47;;;21.00;55.30;;;;;;5064565;28;20445;-61
2022/05/28 06:13:52;;;;;;;5.05;2.15;;;20.80;55.10;;;;;;5083015;28;20131;-62
2022/05/28 06:16:18;;;;;;;4.82;2.58;;;20.50;55.70;;;;;;5082405;28;20063;-61
2022/05/28 06:18:44;;;;;;;6.03;2.58;;;20.30;56.60;;;;;;5080766;28;20469;-60
2022/05/28 06:21:10;;;;;;;4.30;2.70;;;20.40;56.60;;;;;;5083068;28;20039;-61
2022/05/28 06:23:37;;;;;;;5.07;2.50;;;20.70;56.50;;;;;;5082893;28;20073;-63
2022/05/28 06:26:04;;;;;;;5.47;2.30;;;20.80;55.50;;;;;;5080184;28;20590;-61
2022/05/28 06:28:30;;;;;;;5.10;2.67;;;21.00;55.00;;;;;;5081119;28;20085;-61
2022/05/28 06:31:06;;;;;;;5.95;2.95;;;21.10;54.80;;;;;;5063941;28;20414;-61
2022/05/28 06:33:32;;;;;;;5.35;2.30;;;21.50;54.50;;;;;;5080831;28;20481;-62
2022/05/28 06:36:00;;;;;;;5.05;2.47;;;22.00;53.80;;;;;;5080456;28;20119;-61
2022/05/28 06:38:26;;;;;;;6.43;2.72;;;22.20;52.20;;;;;;5081911;28;20036;-61
2022/05/28 06:40:52;;;;;;;7.10;2.67;;;22.20;51.80;;;;;;5079559;28;20099;-61
2022/05/28 06:43:19;;;;;;;6.20;3.08;;;22.40;51.40;;;;;;5079878;28;20025;-61
2022/05/28 06:45:44;;;;;;;5.38;2.67;;;22.50;50.40;;;;;;5078805;28;20044;-60
2022/05/28 06:48:10;;;;;;;6.25;2.33;;;22.30;50.00;;;;;;5061601;28;20039;-60
2022/05/28 06:53:20;;;;;;;9.32;2.92;;;23.10;49.90;;;;;;5082838;28;20125;-61
2022/05/28 06:55:47;;;;;;;6.68;2.60;;;24.10;46.70;;;;;;5062377;28;20038;-60
2022/05/28 06:58:13;;;;;;;6.28;2.40;;;25.30;43.70;;;;;;5081036;28;20023;-60
2022/05/28 07:00:39;;;;;;;7.20;2.45;;;25.50;42.10;;;;;;5077154;28;20024;-60
2022/05/28 07:03:06;;;;;;;8.23;2.50;;;25.00;42.70;;;;;;5075807;28;20497;-62
2022/05/28 07:05:32;;;;;;;7.07;2.80;;;24.30;43.60;;;;;;5077813;28;20025;-60
2022/05/28 07:07:58;;;;;;;6.50;2.45;;;23.40;44.50;;;;;;5081711;28;20367;-62
2022/05/28 07:10:23;;;;;;;4.25;2.53;;;22.80;45.80;;;;;;5082402;28;20193;-62
2022/05/28 07:12:49;;;;;;;9.43;2.50;;;22.40;47.00;;;;;;5079849;28;20630;-62
2022/05/28 07:15:15;;;;;;;5.30;2.35;;;22.10;48.10;;;;;;5080687;28;20032;-60
2022/05/28 07:17:41;;;;;;;5.57;2.60;;;22.00;48.70;;;;;;5080319;28;20033;-59
2022/05/28 07:20:10;;;;;;;6.78;2.67;;;22.00;48.90;;;;;;5072363;28;20043;-60
2022/05/28 07:22:36;;;;;;;8.50;2.90;;;21.90;48.70;;;;;;5075723;28;20021;-62
2022/05/28 07:25:02;;;;;;;12.43;2.72;;;22.00;48.30;;;;;;5059197;28;20031;-60
2022/05/28 07:27:28;;;;;;;12.85;2.50;;;22.10;47.60;;;;;;5062709;28;20024;-61
2022/05/28 07:29:55;;;;;;;8.25;2.42;;;22.40;45.70;;;;;;5065593;28;20020;-61
2022/05/28 07:32:24;;;;;;;7.85;2.90;;;22.30;45.00;;;;;;5085252;28;20028;-61
2022/05/28 07:34:52;;;;;;;8.52;2.35;;;22.40;44.90;;;;;;5066109;28;20036;-63
2022/05/28 07:37:18;;;;;;;11.05;3.45;;;22.40;45.00;;;;;;5084384;28;20021;-62
2022/05/28 07:39:44;;;;;;;12.88;2.78;;;22.30;44.80;;;;;;5080710;28;20028;-60
2022/05/28 07:42:09;;;;;;;7.93;3.13;;;22.20;45.10;;;;;;5077384;28;20082;-62
2022/05/28 07:44:35;;;;;;;9.25;2.72;;;22.20;45.40;;;;;;5085260;28;20048;-60
2022/05/28 07:47:05;;;;;;;7.85;2.80;;;22.30;45.70;;;;;;5077633;28;20096;-61
2022/05/28 07:49:31;;;;;;;8.27;3.30;;;22.20;45.40;;;;;;5067766;28;20036;-61
2022/05/28 07:51:57;;;;;;;11.02;2.53;;;22.20;45.60;;;;;;5078166;28;20551;-61
2022/05/28 07:54:23;;;;;;;6.38;2.92;;;22.00;45.40;;;;;;5082910;28;20063;-64
2022/05/28 07:56:49;;;;;;;11.00;3.13;;;21.90;46.10;;;;;;5058416;28;20468;-62
2022/05/28 07:59:15;;;;;;;7.43;3.53;;;22.00;46.40;;;;;;5083912;28;20054;-61
2022/05/28 08:01:41;;;;;;;7.82;2.58;;;22.70;45.60;;;;;;5079394;28;20656;-62
2022/05/28 08:04:10;;;;;;;8.63;3.15;;;26.50;40.30;;;;;;5081908;28;20442;-63
2022/05/28 08:06:38;;;;;;;11.20;2.83;;;29.00;34.80;;;;;;5082703;28;20207;-64
2022/05/28 08:09:07;;;;;;;8.82;2.75;;;29.10;32.70;;;;;;5079276;28;20116;-64
2022/05/28 08:11:34;;;;;;;8.25;2.67;;;27.80;33.40;;;;;;5079652;28;20066;-62
2022/05/28 08:14:19;;;;;;;10.70;2.90;;;26.60;35.00;;;;;;5083033;28;20219;-63
2022/05/28 08:16:44;;;;;;;7.43;2.85;;;25.70;36.20;;;;;;5078293;28;20032;-62
2022/05/28 08:19:10;;;;;;;7.88;2.75;;;25.00;37.40;;;;;;5082699;28;20515;-63
2022/05/28 08:24:21;;;;;;;14.38;3.10;;;23.90;38.50;;;;;;5080503;28;20079;-64
2022/05/28 08:26:49;;;;;;;9.55;2.90;;;23.80;39.10;;;;;;5080020;28;20016;-63
2022/05/28 08:29:15;;;;;;;9.65;2.90;;;23.80;38.60;;;;;;5088679;28;20016;-65
2022/05/28 08:31:41;;;;;;;7.72;3.08;;;23.80;38.80;;;;;;5075166;28;20031;-62
2022/05/28 08:34:14;;;;;;;11.15;3.47;;;24.30;39.10;;;;;;5059341;28;20110;-61
2022/05/28 08:36:43;;;;;;;10.88;2.80;;;26.80;37.10;;;;;;5061585;28;20035;-61
2022/05/28 08:39:10;;;;;;;7.82;2.65;;;28.70;32.70;;;;;;5078930;28;20019;-64
2022/05/28 08:41:59;;;;;;;10.73;2.78;;;28.00;32.00;;;;;;5057537;28;20016;-64
2022/05/28 08:44:33;;;;;;;11.32;2.67;;;27.30;33.00;;;;;;5082679;28;20052;-64
2022/05/28 08:47:13;;;;;;;12.43;3.38;;;26.80;32.80;;;;;;5079425;28;20536;-64
2022/05/28 08:49:56;;;;;;;12.10;2.97;;;26.40;33.40;;;;;;5057841;28;20029;-64
2022/05/28 08:52:45;;;;;;;11.15;2.80;;;26.30;33.00;;;;;;5057279;28;20031;-63
2022/05/28 08:55:24;;;;;;;8.50;2.97;;;26.50;33.50;;;;;;5082773;28;20034;-65
2022/05/28 08:57:59;;;;;;;9.27;2.88;;;26.80;33.10;;;;;;5064721;28;20117;-63
2022/05/28 09:00:53;;;;;;;11.60;3.85;;;27.20;32.50;;;;;;5077200;28;20024;-63
2022/05/28 09:03:33;;;;;;;13.40;3.50;;;27.10;32.30;;;;;;5077592;28;20086;-64
2022/05/28 09:06:03;;;;;;;8.82;2.90;;;26.80;32.40;;;;;;5059688;28;20099;-63
2022/05/28 09:08:34;;;;;;;9.20;3.13;;;26.60;32.70;;;;;;5080285;28;20026;-67
2022/05/28 09:11:05;;;;;;;8.30;2.85;;;26.30;32.60;;;;;;5082513;28;20031;-63
2022/05/28 09:13:38;;;;;;;12.75;3.25;;;26.10;33.30;;;;;;5066006;28;20069;-64
2022/05/28 09:16:05;;;;;;;10.53;4.30;;;25.90;33.40;;;;;;5081531;28;20012;-62
2022/05/28 09:18:36;;;;;;;10.23;2.95;;;25.90;34.10;;;;;;5080298;28;20323;-64
2022/05/28 09:21:03;;;;;;;11.07;3.05;;;26.20;33.90;;;;;;5085111;28;20369;-64
2022/05/28 09:23:52;;;;;;;11.38;3.10;;;26.70;33.30;;;;;;5082514;28;20024;-64
2022/05/28 09:26:34;;;;;;;7.90;2.90;;;26.90;33.10;;;;;;5082441;28;20507;-63
2022/05/28 09:29:05;;;;;;;8.15;3.10;;;26.90;33.00;;;;;;5074855;28;20028;-64
2022/05/28 09:31:40;;;;;;;11.30;3.75;;;26.80;32.80;;;;;;5082875;28;20028;-63
2022/05/28 09:34:38;;;;;;;12.40;2.72;;;26.60;33.10;;;;;;5079707;28;20028;-62
2022/05/28 09:37:22;;;;;;;11.00;2.72;;;26.30;33.30;;;;;;5083956;28;20172;-65
2022/05/28 09:40:17;;;;;;;7.57;3.03;;;26.00;34.00;;;;;;5083255;28;20052;-62
2022/05/28 09:43:08;;;;;;;9.63;3.10;;;26.30;34.20;;;;;;5081324;28;20016;-62
2022/05/28 09:45:55;;;;;;;7.40;2.83;;;26.40;33.90;;;;;;5082353;28;20508;-64
2022/05/28 09:48:25;;;;;;;11.93;5.03;;;26.20;34.00;;;;;;5079590;28;20016;-65
2022/05/28 09:50:51;;;;;;;11.50;4.22;;;26.20;34.20;;;;;;5081631;28;20078;-64
2022/05/28 09:56:27;;;;;;;9.00;2.80;;;26.10;33.90;;;;;;5082276;28;20043;-62
2022/05/28 09:58:53;;;;;;;13.00;3.22;;;25.80;34.30;;;;;;5062952;28;20082;-62
2022/05/28 10:01:26;;;;;;;11.88;4.93;;;25.40;34.60;;;;;;5081176;28;20087;-63
2022/05/28 10:06:53;;;;;;;7.95;2.97;;;25.20;34.70;;;;;;5080194;28;20027;-62
2022/05/28 10:09:31;;;;;;;5.32;2.40;;;24.60;35.40;;;;;;5082485;28;20058;-63
2022/05/28 10:12:12;;;;;;;8.02;2.70;;;24.50;36.20;;;;;;5082247;28;20072;-62
2022/05/28 10:14:38;;;;;;;9.60;2.50;;;24.40;36.40;;;;;;5079482;28;20025;-63
2022/05/28 10:17:05;;;;;;;7.03;2.72;;;24.20;36.50;;;;;;5083642;28;20484;-63
2022/05/28 10:19:43;;;;;;;11.80;3.25;;;24.10;37.00;;;;;;5079589;28;20495;-64
2022/05/28 10:22:18;;;;;;;13.73;5.75;;;24.00;37.10;;;;;;5063203;28;20050;-65
2022/05/28 10:25:08;;;;;;;6.88;2.80;;;24.00;37.40;;;;;;5082444;28;20016;-63
2022/05/28 10:27:40;;;;;;;8.85;3.20;;;24.10;37.10;;;;;;5080159;28;20020;-63
2022/05/28 10:30:24;;;;;;;7.88;2.90;;;24.40;37.00;;;;;;5080738;28;20584;-61
2022/05/28 10:32:51;;;;;;;;;;;24.50;36.50;;;;;;5080945;28;20497;-60
2022/05/28 10:35:20;;;;;;;7.28;2.75;;;24.70;36.70;;;;;;5081947;28;20341;-62
2022/05/28 10:37:46;;;;;;;12.98;3.00;;;24.60;35.60;;;;;;5073926;28;20035;-60
2022/05/28 10:40:15;;;;;;;6.05;2.60;;;24.10;36.50;;;;;;5072731;28;20055;-63
2022/05/28 10:42:41;;;;;;;11.75;2.63;;;24.00;36.70;;;;;;5057477;28;20028;-62
2022/05/28 10:45:09;;;;;;;6.28;2.55;;;24.30;36.90;;;;;;5058930;28;20073;-63
2022/05/28 10:48:02;;;;;;;6.30;2.58;;;24.60;36.30;;;;;;5062413;28;20343;-63
2022/05/28 10:50:46;;;;;;;6.30;2.50;;;24.50;34.80;;;;;;5063283;28;20021;-64
2022/05/28 10:53:29;;;;;;;6.38;2.55;;;24.30;35.00;;;;;;5079234;28;20024;-64
2022/05/28 10:56:17;;;;;;;10.38;2.40;;;24.50;34.90;;;;;;5064140;28;20051;-63
2022/05/28 10:59:07;;;;;;;4.65;2.45;;;24.60;34.30;;;;;;5063923;28;20331;-63
2022/05/28 11:01:44;;;;;;;7.35;2.47;;;24.60;33.10;;;;;;5083101;28;20031;-64
2022/05/28 11:04:48;;;;;;;6.85;2.80;;;24.50;33.20;;;;;;5064218;28;20190;-63
2022/05/28 11:07:19;;;;;;;6.93;2.78;;;24.10;33.50;;;;;;5050946;28;20145;-63
2022/05/28 11:10:17;;;;;;;7.20;2.40;;;23.80;34.00;;;;;;5082286;28;20020;-64
2022/05/28 11:13:14;;;;;;;6.80;2.40;;;23.40;34.40;;;;;;5081567;28;20016;-64
2022/05/28 11:15:43;;;;;;;5.72;1.85;;;23.10;35.30;;;;;;5079757;28;20047;-63
2022/05/28 11:18:11;;;;;;;7.07;2.30;;;22.90;36.30;;;;;;5059858;28;20044;-65
2022/05/28 11:21:09;;;;;;;7.53;2.80;;;22.60;36.90;;;;;;5064116;28;20028;-65
2022/05/28 11:24:06;;;;;;;10.80;2.35;;;22.40;38.80;;;;;;5036799;28;20041;-63
2022/05/28 11:26:53;;;;;;;8.02;2.58;;;22.20;38.80;;;;;;5069734;28;20039;-64
2022/05/28 11:29:28;;;;;;;9.88;4.68;;;22.20;39.50;;;;;;5061226;28;20393;-64
2022/05/28 11:32:06;;;;;;;7.72;2.47;;;22.20;40.30;;;;;;5079577;28;20055;-65
2022/05/28 11:34:42;;;;;;;5.88;2.72;;;22.10;40.30;;;;;;5079773;28;20485;-64
2022/05/28 11:37:15;;;;;;;13.35;2.83;;;22.10;40.80;;;;;;5074873;28;20159;-64
2022/05/28 11:40:03;;;;;;;7.32;2.47;;;22.00;40.10;;;;;;5077984;28;20024;-63
2022/05/28 11:42:47;;;;;;;8.68;2.72;;;22.20;39.50;;;;;;5080995;28;20098;-64
2022/05/28 11:45:22;;;;;;;7.15;2.30;;;22.30;39.10;;;;;;5077560;28;20062;-65
2022/05/28 11:47:58;;;;;;;6.88;3.13;;;22.30;39.20;;;;;;5056529;28;20075;-63
2022/05/28 11:53:41;;;;;;;8.23;3.80;;;22.10;40.00;;;;;;5078592;28;20133;-63
2022/05/28 11:56:13;;;;;;;11.23;3.60;;;22.10;40.60;;;;;;5058194;28;20024;-63
2022/05/28 11:58:44;;;;;;;12.10;3.92;;;22.10;41.00;;;;;;5076236;28;20055;-64
2022/05/28 12:01:17;;;;;;;9.60;3.83;;;22.00;41.20;;;;;;5075932;28;20012;-64
2022/05/28 12:03:45;;;;;;;10.00;3.72;;;22.00;41.30;;;;;;5078181;28;20028;-65
2022/05/28 12:06:20;;;;;;;5.47;2.88;;;21.70;41.70;;;;;;5055449;28;20016;-63
2022/05/28 12:09:04;;;;;;;10.25;4.50;;;21.50;42.10;;;;;;5062230;28;20093;-66
2022/05/28 12:11:41;;;;;;;11.52;3.47;;;21.50;42.90;;;;;;5080698;28;20044;-65
2022/05/28 12:14:27;;;;;;;8.63;4.10;;;21.50;42.20;;;;;;5080449;28;20029;-65
2022/05/28 12:17:08;;;;;;;8.18;3.20;;;21.30;42.50;;;;;;5062598;28;20020;-63
2022/05/28 12:19:43;;;;;;;10.60;3.85;;;21.50;42.90;;;;;;5060663;28;20029;-63
2022/05/28 12:22:32;;;;;;;9.82;3.22;;;21.50;43.10;;;;;;5082453;28;20048;-63
2022/05/28 12:25:20;;;;;;;6.65;2.70;;;21.60;42.40;;;;;;5067843;28;20437;-64
2022/05/28 12:27:55;;;;;;;10.30;3.20;;;21.70;41.90;;;;;;5077807;28;20028;-63
2022/05/28 12:30:44;;;;;;;8.00;2.80;;;21.80;42.00;;;;;;5081245;28;20469;-63
2022/05/28 12:33:21;;;;;;;6.95;3.25;;;21.90;41.50;;;;;;5064669;28;20074;-64
2022/05/28 12:35:50;;;;;;;6.05;2.20;;;22.00;41.80;;;;;;5060727;28;20039;-65
2022/05/28 12:38:24;;;;;;;8.07;3.20;;;22.10;40.80;;;;;;5076088;28;20423;-64
2022/05/28 12:41:00;;;;;;;5.90;2.80;;;22.30;39.90;;;;;;5063786;28;20035;-61
2022/05/28 12:43:26;;;;;;;7.90;2.90;;;22.30;39.60;;;;;;5078862;28;20465;-64
2022/05/28 12:45:54;;;;;;;6.88;2.50;;;22.30;38.90;;;;;;5077736;28;20052;-61
2022/05/28 12:48:28;;;;;;;10.55;3.70;;;22.10;38.80;;;;;;5059154;28;20024;-65
2022/05/28 12:51:18;;;;;;;6.57;3.50;;;22.00;39.10;;;;;;5078185;28;20024;-62
2022/05/28 12:54:03;;;;;;;8.73;2.90;;;21.60;39.80;;;;;;5083762;28;20017;-64
2022/05/28 12:56:34;;;;;;;7.82;3.22;;;21.60;40.10;;;;;;5080807;28;20342;-64
2022/05/28 12:59:14;;;;;;;5.43;2.65;;;21.40;40.70;;;;;;5072849;28;20034;-62
2022/05/28 13:02:00;;;;;;;7.28;3.95;;;21.30;40.80;;;;;;5073653;28;20067;-63
2022/05/28 13:04:34;;;;;;;8.48;3.75;;;21.50;40.80;;;;;;5048503;28;20036;-65
2022/05/28 13:07:02;;;;;;;6.18;2.92;;;21.70;40.70;;;;;;5062506;28;20024;-65
2022/05/28 13:09:31;;;;;;;7.72;3.03;;;21.90;40.00;;;;;;5056840;28;20176;-63
2022/05/28 13:12:12;;;;;;;8.15;3.55;;;22.00;40.20;;;;;;5055431;28;20052;-63
2022/05/28 13:15:19;;;;;;;10.07;3.88;;;22.00;40.40;;;;;;5073697;28;20039;-63
2022/05/28 13:18:10;;;;;;;7.95;3.17;;;22.00;40.60;;;;;;5062209;28;20040;-65
2022/05/28 13:20:52;;;;;;;14.80;3.28;;;22.10;40.60;;;;;;5059749;28;20509;-63
2022/05/28 13:23:20;;;;;;;9.48;2.88;;;22.00;40.70;;;;;;5061771;28;20021;-63
2022/05/28 13:25:54;;;;;;;10.10;3.13;;;21.90;41.00;;;;;;5064280;28;20077;-62